createdAt,value
2019-02-11T00:01:48.977Z,5.10
2019-02-11T00:04:19.082Z,5.10
2019-02-11T00:06:49.280Z,5.10
2019-02-11T00:09:19.411Z,5.00
2019-02-11T00:11:49.577Z,4.90
2019-02-11T00:14:19.761Z,4.90
2019-02-11T00:16:49.972Z,4.80
2019-02-11T00:19:20.148Z,4.70
2019-02-11T00:21:50.321Z,4.70
2019-02-11T00:24:20.505Z,4.60
2019-02-11T00:26:50.775Z,4.50
2019-02-11T00:29:20.934Z,4.40
2019-02-11T00:31:51.123Z,4.40
2019-02-11T00:34:21.284Z,4.40
2019-02-11T00:36:51.433Z,4.40
2019-02-11T00:39:21.608Z,4.30
2019-02-11T00:41:51.858Z,4.30
2019-02-11T00:44:22.043Z,4.30
2019-02-11T00:46:52.216Z,4.30
2019-02-11T00:49:22.429Z,4.30
2019-02-11T00:51:52.600Z,4.30
2019-02-11T00:54:22.801Z,4.30
2019-02-11T00:56:53.002Z,4.30
2019-02-11T00:59:23.212Z,4.20
2019-02-11T01:01:53.483Z,4.20
2019-02-11T01:04:23.690Z,4.20
2019-02-11T01:06:53.887Z,4.20
2019-02-11T01:09:24.048Z,4.10
2019-02-11T01:11:54.252Z,4.10
2019-02-11T01:14:24.446Z,4.10
2019-02-11T01:16:54.589Z,4.20
2019-02-11T01:19:24.801Z,4.10
2019-02-11T01:21:55.093Z,4.10
2019-02-11T01:24:25.281Z,4.10
2019-02-11T01:26:55.475Z,4.00
2019-02-11T01:29:25.635Z,4.00
2019-02-11T01:31:55.807Z,4.00
2019-02-11T01:34:25.962Z,4.00
2019-02-11T01:36:56.146Z,4.00
2019-02-11T01:39:26.382Z,4.00
2019-02-11T01:41:56.554Z,4.00
2019-02-11T01:44:26.743Z,4.00
2019-02-11T01:46:56.889Z,4.00
2019-02-11T01:49:27.095Z,4.00
2019-02-11T01:51:57.206Z,4.00
2019-02-11T01:54:27.405Z,4.00
2019-02-11T01:56:58.746Z,4.00
2019-02-11T01:59:28.908Z,4.00
2019-02-11T02:01:59.106Z,4.00
2019-02-11T02:04:29.262Z,4.00
2019-02-11T02:06:59.423Z,4.00
2019-02-11T02:09:29.629Z,3.90
2019-02-11T02:11:59.772Z,4.00
2019-02-11T02:14:29.933Z,4.00
2019-02-11T02:17:00.104Z,3.90
2019-02-11T02:19:30.242Z,3.90
2019-02-11T02:22:00.408Z,3.90
2019-02-11T02:24:30.541Z,3.90
2019-02-11T02:27:00.703Z,3.90
2019-02-11T02:29:30.860Z,4.00
2019-02-11T02:32:01.023Z,3.90
2019-02-11T02:34:31.141Z,4.00
2019-02-11T02:37:01.274Z,3.90
2019-02-11T02:39:31.469Z,3.90
2019-02-11T02:42:01.778Z,3.90
2019-02-11T02:44:32.020Z,3.90
2019-02-11T02:47:02.168Z,3.80
2019-02-11T02:49:32.351Z,3.90
2019-02-11T02:52:02.570Z,3.90
2019-02-11T02:54:32.741Z,3.90
2019-02-11T02:57:03.180Z,3.90
2019-02-11T02:59:33.543Z,3.90
2019-02-11T03:02:04.605Z,3.90
2019-02-11T03:04:34.735Z,3.90
2019-02-11T03:07:04.888Z,3.90
2019-02-11T03:09:35.031Z,3.90
2019-02-11T03:12:05.225Z,3.80
2019-02-11T03:14:35.384Z,3.80
2019-02-11T03:17:05.669Z,3.80
2019-02-11T03:19:35.859Z,3.80
2019-02-11T03:22:05.973Z,3.80
2019-02-11T03:24:36.158Z,3.80
2019-02-11T03:27:06.311Z,3.80
2019-02-11T03:29:36.521Z,3.80
2019-02-11T03:32:06.696Z,3.80
2019-02-11T03:34:36.916Z,3.90
2019-02-11T03:37:07.062Z,3.80
2019-02-11T03:39:37.209Z,3.80
2019-02-11T03:42:07.445Z,3.80
2019-02-11T03:44:37.827Z,3.80
2019-02-11T03:47:08.026Z,3.80
2019-02-11T03:49:38.171Z,3.80
2019-02-11T03:52:08.567Z,3.80
2019-02-11T03:54:38.713Z,3.80
2019-02-11T03:57:08.880Z,3.80
2019-02-11T03:59:39.098Z,3.70
2019-02-11T04:02:09.273Z,3.80
2019-02-11T04:04:39.458Z,3.80
2019-02-11T04:07:09.687Z,3.80
2019-02-11T04:09:39.850Z,3.80
2019-02-11T04:12:10.030Z,3.80
2019-02-11T04:14:40.328Z,3.80
2019-02-11T04:17:10.551Z,3.80
2019-02-11T04:19:40.708Z,3.80
2019-02-11T04:22:10.926Z,3.80
2019-02-11T04:24:41.062Z,3.80
2019-02-11T04:27:11.267Z,3.80
2019-02-11T04:29:41.430Z,3.80
2019-02-11T04:32:11.606Z,3.90
2019-02-11T04:34:41.744Z,3.90
2019-02-11T04:37:11.950Z,3.90
2019-02-11T04:39:42.220Z,3.90
2019-02-11T04:42:12.414Z,3.90
2019-02-11T04:44:42.544Z,3.80
2019-02-11T04:47:12.796Z,3.90
2019-02-11T04:49:42.926Z,3.80
2019-02-11T04:52:13.105Z,3.80
2019-02-11T04:54:43.306Z,3.80
2019-02-11T04:57:13.492Z,3.80
2019-02-11T04:59:43.649Z,3.70
2019-02-11T05:02:13.831Z,3.80
2019-02-11T05:04:44.013Z,3.70
2019-02-11T05:07:14.175Z,3.70
2019-02-11T05:09:44.442Z,3.70
2019-02-11T05:12:14.594Z,3.60
2019-02-11T05:14:44.766Z,3.70
2019-02-11T05:17:14.899Z,3.60
2019-02-11T05:19:45.066Z,3.70
2019-02-11T05:22:15.245Z,3.70
2019-02-11T05:24:45.423Z,3.70
2019-02-11T05:27:15.565Z,3.70
2019-02-11T05:29:45.763Z,3.70
2019-02-11T05:32:15.946Z,3.70
2019-02-11T05:34:46.221Z,3.70
2019-02-11T05:37:16.456Z,3.60
2019-02-11T05:39:46.670Z,3.70
2019-02-11T05:42:16.851Z,3.70
2019-02-11T05:44:53.581Z,3.80
2019-02-11T05:47:18.970Z,3.80
2019-02-11T05:49:49.129Z,3.80
2019-02-11T05:52:19.366Z,3.90
2019-02-11T05:54:49.662Z,3.80
2019-02-11T05:57:19.794Z,3.80
2019-02-11T05:59:49.947Z,3.80
2019-02-11T06:02:22.018Z,3.80
2019-02-11T06:04:52.226Z,3.80
2019-02-11T06:07:22.387Z,3.90
2019-02-11T06:09:52.496Z,3.90
2019-02-11T06:12:22.745Z,3.90
2019-02-11T06:14:55.393Z,4.00
2019-02-11T06:17:24.763Z,3.90
2019-02-11T06:19:54.906Z,3.90
2019-02-11T06:22:25.053Z,3.90
2019-02-11T06:24:55.249Z,4.10
2019-02-11T06:27:25.431Z,4.20
2019-02-11T06:29:55.621Z,4.10
2019-02-11T06:32:25.858Z,4.10
2019-02-11T06:34:56.121Z,4.10
2019-02-11T06:37:26.274Z,4.20
2019-02-11T06:39:56.463Z,4.20
2019-02-11T06:42:26.629Z,4.30
2019-02-11T06:44:56.841Z,4.40
2019-02-11T06:47:27.852Z,4.30
2019-02-11T06:49:58.065Z,4.40
2019-02-11T06:52:28.208Z,4.40
2019-02-11T06:54:58.443Z,4.40
2019-02-11T06:57:28.651Z,4.30
2019-02-11T06:59:58.873Z,4.30
2019-02-11T07:02:29.086Z,4.40
2019-02-11T07:04:59.224Z,4.40
2019-02-11T07:07:29.405Z,4.40
2019-02-11T07:09:59.685Z,4.40
2019-02-11T07:12:29.855Z,4.40
2019-02-11T07:15:00.052Z,4.40
2019-02-11T07:17:30.247Z,4.30
2019-02-11T07:20:00.426Z,4.40
2019-02-11T07:22:30.535Z,4.60
2019-02-11T07:25:00.731Z,4.60
2019-02-11T07:27:30.909Z,4.60
2019-02-11T07:30:01.070Z,4.60
2019-02-11T07:32:31.232Z,4.70
2019-02-11T07:35:01.395Z,4.70
2019-02-11T07:37:31.584Z,4.80
2019-02-11T07:40:01.765Z,4.80
2019-02-11T07:42:33.541Z,4.80
2019-02-11T07:45:05.611Z,4.90
2019-02-11T07:47:35.793Z,4.80
2019-02-11T07:50:06.946Z,4.90
2019-02-11T07:52:37.099Z,4.90
2019-02-11T07:55:07.391Z,5.00
2019-02-11T07:57:37.545Z,5.00
2019-02-11T08:00:10.004Z,4.90
2019-02-11T08:02:40.163Z,5.00
2019-02-11T08:05:10.441Z,5.10
2019-02-11T08:07:40.601Z,5.20
2019-02-11T08:10:10.771Z,5.20
2019-02-11T08:12:40.991Z,5.30
2019-02-11T08:15:11.175Z,5.30
2019-02-11T08:17:41.408Z,5.30
2019-02-11T08:20:11.569Z,5.20
2019-02-11T08:22:41.737Z,5.30
2019-02-11T08:25:11.914Z,5.40
2019-02-11T08:27:42.079Z,5.50
2019-02-11T08:30:12.703Z,5.50
2019-02-11T08:32:42.860Z,5.50
2019-02-11T08:35:13.099Z,5.60
2019-02-11T08:37:43.326Z,5.70
2019-02-11T08:40:13.479Z,5.80
2019-02-11T08:42:43.698Z,5.90
2019-02-11T08:45:13.957Z,5.80
2019-02-11T08:47:44.112Z,5.80
2019-02-11T08:50:14.528Z,5.70
2019-02-11T08:52:44.676Z,5.80
2019-02-11T08:55:14.929Z,6.00
2019-02-11T08:57:45.098Z,6.10
2019-02-11T09:00:16.075Z,6.00
2019-02-11T09:02:46.266Z,5.90
2019-02-11T09:05:16.624Z,5.80
2019-02-11T09:07:47.073Z,5.80
2019-02-11T09:10:17.552Z,5.80
2019-02-11T09:12:47.849Z,5.80
2019-02-11T09:15:18.001Z,5.70
2019-02-11T09:17:48.251Z,5.70
2019-02-11T09:20:18.447Z,5.70
2019-02-11T09:22:48.693Z,5.70
2019-02-11T09:25:18.900Z,5.80
2019-02-11T09:27:49.076Z,5.70
2019-02-11T09:30:19.276Z,5.70
2019-02-11T09:32:49.480Z,5.70
2019-02-11T09:35:19.744Z,5.60
2019-02-11T09:37:49.922Z,5.60
2019-02-11T09:40:20.108Z,5.80
2019-02-11T09:42:50.269Z,6.10
2019-02-11T09:45:23.858Z,6.40
2019-02-11T09:47:54.104Z,7.00
2019-02-11T09:50:31.680Z,7.30
2019-02-11T09:53:02.647Z,7.10
2019-02-11T09:55:35.156Z,6.70
2019-02-11T09:58:05.619Z,6.30
2019-02-11T10:00:35.969Z,6.30
2019-02-11T10:03:06.555Z,6.20
2019-02-11T10:05:36.715Z,6.10
2019-02-11T10:08:06.919Z,6.00
2019-02-11T10:10:37.080Z,5.90
2019-02-11T10:13:07.258Z,5.90
2019-02-11T10:15:37.415Z,6.10
2019-02-11T10:18:07.606Z,6.10
2019-02-11T10:20:37.795Z,6.00
2019-02-11T10:23:07.966Z,6.00
